BAW80EF LFPG-EGLL
Flight info
| Callsign | BAW80EF |
|---|---|
| Flight time | N/A |
| Altitude | 24000 |
| Route | OPALE DCT KESAX DCT DIMAL DCT ALESO |
| Aircraft | A35K/H-SDE2E3GHIJ3J4J5LM1ORWXY/LB1D1 |
Departure
| Time | N/A |
|---|---|
| Airport | Charles de Gaulle International Airport (LFPG) |
Arrival
| Time | 2026-05-06 21:20 |
|---|---|
| Airport | London Heathrow Airport (EGLL) |
| Time | Latitude | Longitude | Altitude | Speed | Heading |
|---|---|---|---|---|---|
| 2026-05-06 20:56 | 50.53745 | 1.28814 | 23993 ft | 454 kts | 311° |
| 2026-05-06 20:56 | 50.55898 | 1.25191 | 23994 ft | 454 kts | 311° |
| 2026-05-06 20:56 | 50.58054 | 1.21542 | 23995 ft | 454 kts | 311° |
| 2026-05-06 20:57 | 50.60264 | 1.17987 | 23996 ft | 455 kts | 314° |
| 2026-05-06 20:57 | 50.62520 | 1.14478 | 23996 ft | 455 kts | 314° |
| 2026-05-06 20:57 | 50.64769 | 1.10968 | 24009 ft | 455 kts | 313° |
| 2026-05-06 20:57 | 50.67011 | 1.07448 | 24006 ft | 454 kts | 313° |
| 2026-05-06 20:58 | 50.69245 | 1.03923 | 24007 ft | 454 kts | 313° |
| 2026-05-06 20:58 | 50.71447 | 1.00434 | 24009 ft | 454 kts | 313° |
| 2026-05-06 20:58 | 50.73679 | 0.96890 | 24011 ft | 454 kts | 313° |
| 2026-05-06 20:58 | 50.75904 | 0.93351 | 24004 ft | 454 kts | 313° |
| 2026-05-06 20:59 | 50.78128 | 0.89808 | 23804 ft | 449 kts | 313° |
| 2026-05-06 20:59 | 50.80317 | 0.86315 | 22950 ft | 447 kts | 313° |
| 2026-05-06 20:59 | 50.82476 | 0.82866 | 22166 ft | 445 kts | 313° |
| 2026-05-06 20:59 | 50.84635 | 0.79416 | 21522 ft | 438 kts | 313° |
| 2026-05-06 21:00 | 50.86768 | 0.76003 | 20922 ft | 431 kts | 313° |
| 2026-05-06 21:00 | 50.88860 | 0.72647 | 20337 ft | 424 kts | 313° |
| 2026-05-06 21:00 | 50.90913 | 0.69344 | 19752 ft | 418 kts | 313° |
| 2026-05-06 21:00 | 50.92941 | 0.66074 | 19146 ft | 413 kts | 313° |
| 2026-05-06 21:01 | 50.94945 | 0.62839 | 18552 ft | 409 kts | 313° |
| 2026-05-06 21:01 | 50.96904 | 0.59675 | 17935 ft | 405 kts | 313° |
| 2026-05-06 21:01 | 50.98874 | 0.56494 | 17298 ft | 402 kts | 313° |
| 2026-05-06 21:01 | 51.00834 | 0.53321 | 16702 ft | 402 kts | 313° |
| 2026-05-06 21:02 | 51.02794 | 0.50146 | 16103 ft | 400 kts | 313° |
| 2026-05-06 21:02 | 51.04732 | 0.47000 | 15492 ft | 397 kts | 313° |
| 2026-05-06 21:02 | 51.06654 | 0.43879 | 14917 ft | 394 kts | 313° |
| 2026-05-06 21:02 | 51.08589 | 0.40821 | 14342 ft | 391 kts | 315° |
| 2026-05-06 21:03 | 51.10553 | 0.37857 | 13750 ft | 387 kts | 316° |
| 2026-05-06 21:03 | 51.12495 | 0.34928 | 13295 ft | 378 kts | 315° |
| 2026-05-06 21:03 | 51.14337 | 0.32134 | 13014 ft | 363 kts | 315° |
| 2026-05-06 21:03 | 51.16098 | 0.29449 | 12626 ft | 337 kts | 315° |
| 2026-05-06 21:04 | 51.17726 | 0.26963 | 12179 ft | 312 kts | 315° |
| 2026-05-06 21:04 | 51.19256 | 0.24623 | 11502 ft | 298 kts | 315° |
| 2026-05-06 21:04 | 51.20734 | 0.22362 | 10828 ft | 290 kts | 315° |
| 2026-05-06 21:04 | 51.22185 | 0.20131 | 10408 ft | 288 kts | 314° |
| 2026-05-06 21:05 | 51.23620 | 0.17917 | 9930 ft | 286 kts | 314° |
| 2026-05-06 21:05 | 51.25048 | 0.15711 | 9449 ft | 285 kts | 314° |
| 2026-05-06 21:05 | 51.26470 | 0.13516 | 8965 ft | 283 kts | 314° |
| 2026-05-06 21:05 | 51.27883 | 0.11336 | 8510 ft | 281 kts | 314° |
| 2026-05-06 21:06 | 51.29281 | 0.09179 | 8152 ft | 276 kts | 314° |
| 2026-05-06 21:06 | 51.30636 | 0.07092 | 7940 ft | 265 kts | 315° |
| 2026-05-06 21:06 | 51.31507 | 0.05751 | 7809 ft | 259 kts | 315° |
| 2026-05-06 21:06 | 51.32665 | 0.03631 | 7600 ft | 249 kts | 300° |
| 2026-05-06 21:07 | 51.33260 | 0.00161 | 7172 ft | 245 kts | 275° |
| 2026-05-06 21:07 | 51.33392 | -0.02543 | 6899 ft | 240 kts | 274° |
| 2026-05-06 21:07 | 51.33468 | -0.04328 | 6891 ft | 237 kts | 274° |
| 2026-05-06 21:07 | 51.33586 | -0.06926 | 6893 ft | 237 kts | 274° |
| 2026-05-06 21:08 | 51.33713 | -0.09553 | 6885 ft | 237 kts | 274° |
| 2026-05-06 21:08 | 51.33843 | -0.12194 | 6891 ft | 237 kts | 275° |
| 2026-05-06 21:08 | 51.33976 | -0.14830 | 6895 ft | 237 kts | 275° |
| 2026-05-06 21:08 | 51.34108 | -0.17461 | 6894 ft | 237 kts | 275° |
| 2026-05-06 21:09 | 51.34241 | -0.20097 | 6895 ft | 237 kts | 275° |
| 2026-05-06 21:09 | 51.34375 | -0.22722 | 6900 ft | 237 kts | 275° |
| 2026-05-06 21:09 | 51.34507 | -0.25323 | 6894 ft | 237 kts | 275° |
| 2026-05-06 21:09 | 51.34640 | -0.27958 | 6898 ft | 237 kts | 275° |
| 2026-05-06 21:10 | 51.34771 | -0.30589 | 6899 ft | 237 kts | 275° |
| 2026-05-06 21:10 | 51.34904 | -0.33211 | 6900 ft | 236 kts | 275° |
| 2026-05-06 21:10 | 51.35035 | -0.35832 | 6896 ft | 236 kts | 275° |
| 2026-05-06 21:10 | 51.35166 | -0.38459 | 6897 ft | 237 kts | 275° |
| 2026-05-06 21:11 | 51.35293 | -0.41086 | 6903 ft | 237 kts | 274° |
| 2026-05-06 21:11 | 51.35419 | -0.43728 | 6907 ft | 237 kts | 275° |
| 2026-05-06 21:11 | 51.35545 | -0.46363 | 6906 ft | 237 kts | 275° |
| 2026-05-06 21:11 | 51.35670 | -0.48955 | 6902 ft | 238 kts | 274° |
| 2026-05-06 21:12 | 51.35795 | -0.51594 | 6898 ft | 238 kts | 274° |
| 2026-05-06 21:12 | 51.35919 | -0.54235 | 6907 ft | 237 kts | 274° |
| 2026-05-06 21:12 | 51.36046 | -0.56871 | 6908 ft | 238 kts | 274° |
| 2026-05-06 21:12 | 51.36168 | -0.59452 | 6904 ft | 237 kts | 274° |
| 2026-05-06 21:13 | 51.36288 | -0.62079 | 6897 ft | 237 kts | 274° |
| 2026-05-06 21:13 | 51.36407 | -0.64716 | 6891 ft | 236 kts | 274° |
| 2026-05-06 21:13 | 51.36534 | -0.67258 | 6802 ft | 223 kts | 276° |
| 2026-05-06 21:13 | 51.36701 | -0.69672 | 6647 ft | 214 kts | 277° |
| 2026-05-06 21:14 | 51.37032 | -0.71952 | 6381 ft | 209 kts | 291° |
| 2026-05-06 21:14 | 51.37777 | -0.73878 | 6079 ft | 205 kts | 313° |
| 2026-05-06 21:14 | 51.38894 | -0.75273 | 5782 ft | 202 kts | 328° |
| 2026-05-06 21:14 | 51.40101 | -0.76401 | 5426 ft | 201 kts | 329° |
| 2026-05-06 21:15 | 51.41347 | -0.77404 | 5022 ft | 202 kts | 338° |
| 2026-05-06 21:15 | 51.42689 | -0.77927 | 4803 ft | 194 kts | 353° |
| 2026-05-06 21:15 | 51.43982 | -0.77831 | 4575 ft | 181 kts | 9° |
| 2026-05-06 21:15 | 51.45169 | -0.77211 | 4259 ft | 179 kts | 22° |
| 2026-05-06 21:16 | 51.46261 | -0.76361 | 3976 ft | 176 kts | 25° |
| 2026-05-06 21:16 | 51.47201 | -0.75113 | 3596 ft | 179 kts | 56° |
| 2026-05-06 21:16 | 51.47673 | -0.73258 | 3254 ft | 181 kts | 75° |
| 2026-05-06 21:16 | 51.47712 | -0.71255 | 2983 ft | 178 kts | 90° |
| 2026-05-06 21:17 | 51.47664 | -0.69288 | 2728 ft | 174 kts | 87° |
| 2026-05-06 21:17 | 51.47684 | -0.67370 | 2495 ft | 169 kts | 85° |
| 2026-05-06 21:17 | 51.47694 | -0.65502 | 2250 ft | 164 kts | 86° |
| 2026-05-06 21:17 | 51.47697 | -0.63715 | 2035 ft | 161 kts | 86° |
| 2026-05-06 21:18 | 51.47704 | -0.61921 | 1820 ft | 161 kts | 85° |
| 2026-05-06 21:18 | 51.47711 | -0.60128 | 1590 ft | 161 kts | 86° |
| 2026-05-06 21:18 | 51.47717 | -0.58350 | 1376 ft | 156 kts | 85° |
| 2026-05-06 21:18 | 51.47728 | -0.56664 | 1164 ft | 148 kts | 86° |
| 2026-05-06 21:19 | 51.47717 | -0.55017 | 942 ft | 147 kts | 87° |
| 2026-05-06 21:19 | 51.47724 | -0.53390 | 746 ft | 143 kts | 86° |
| 2026-05-06 21:19 | 51.47736 | -0.51835 | 517 ft | 137 kts | 85° |
| 2026-05-06 21:19 | 51.47745 | -0.50342 | 329 ft | 132 kts | 86° |
| 2026-05-06 21:20 | 51.47748 | -0.48864 | 181 ft | 133 kts | 85° |
| 2026-05-06 21:20 | 51.47756 | -0.47403 | 94 ft | 125 kts | 88° |
| 2026-05-06 21:20 | 51.47758 | -0.46306 | 99 ft | 62 kts | 90° |
| 2026-05-06 21:20 | 51.47759 | -0.45798 | 91 ft | 43 kts | 90° |
| 2026-05-06 21:21 | 51.47732 | -0.45513 | 94 ft | 19 kts | 135° |
| 2026-05-06 21:21 | 51.47639 | -0.45475 | 95 ft | 7 kts | 189° |
| 2026-05-06 21:21 | 51.47605 | -0.45533 | 94 ft | 9 kts | 252° |
| 2026-05-06 21:21 | 51.47598 | -0.45657 | 94 ft | 13 kts | 269° |
| 2026-05-06 21:22 | 51.47598 | -0.45822 | 91 ft | 17 kts | 270° |
| 2026-05-06 21:22 | 51.47598 | -0.46027 | 91 ft | 20 kts | 269° |
| 2026-05-06 21:22 | 51.47596 | -0.46260 | 98 ft | 22 kts | 269° |
| 2026-05-06 21:22 | 51.47594 | -0.46518 | 99 ft | 25 kts | 269° |
| 2026-05-06 21:23 | 51.47591 | -0.46765 | 96 ft | 19 kts | 264° |
| 2026-05-06 21:23 | 51.47584 | -0.46988 | 97 ft | 20 kts | 270° |
| 2026-05-06 21:23 | 51.47585 | -0.47207 | 95 ft | 19 kts | 270° |
| 2026-05-06 21:23 | 51.47585 | -0.47419 | 95 ft | 19 kts | 270° |
| 2026-05-06 21:24 | 51.47584 | -0.47622 | 94 ft | 17 kts | 269° |
| 2026-05-06 21:24 | 51.47582 | -0.47809 | 95 ft | 16 kts | 268° |
| 2026-05-06 21:24 | 51.47579 | -0.47973 | 96 ft | 14 kts | 270° |
| 2026-05-06 21:24 | 51.47579 | -0.48116 | 98 ft | 12 kts | 269° |
| 2026-05-06 21:25 | 51.47578 | -0.48241 | 98 ft | 10 kts | 269° |
| 2026-05-06 21:25 | 51.47561 | -0.48341 | 96 ft | 9 kts | 221° |
| 2026-05-06 21:25 | 51.47496 | -0.48357 | 95 ft | 9 kts | 181° |
| 2026-05-06 21:25 | 51.47433 | -0.48360 | 93 ft | 9 kts | 181° |
| 2026-05-06 21:26 | 51.47376 | -0.48360 | 93 ft | 8 kts | 179° |
| 2026-05-06 21:26 | 51.47318 | -0.48360 | 91 ft | 9 kts | 180° |
| 2026-05-06 21:26 | 51.47258 | -0.48359 | 92 ft | 8 kts | 178° |
| 2026-05-06 21:26 | 51.47205 | -0.48349 | 94 ft | 6 kts | 156° |
| 2026-05-06 21:27 | 51.47192 | -0.48314 | 95 ft | 3 kts | 108° |
| 2026-05-06 21:27 | 51.47184 | -0.48255 | 93 ft | 7 kts | 98° |
| 2026-05-06 21:27 | 51.47184 | -0.48233 | 95 ft | 0 kts | 92° |